sensor_id;sensor_type;location;lat;lon;timestamp;pressure;altitude;pressure_sealevel;temperature;humidity
8059;BME280;75058;42.668;23.396;2024-01-15T00:01:04;94627.38;;;-3.44;64.87
8059;BME280;75058;42.668;23.396;2024-01-15T00:03:32;94618.56;;;-3.49;63.71
8059;BME280;75058;42.668;23.396;2024-01-15T00:06:00;94618.31;;;-3.13;66.11
8059;BME280;75058;42.668;23.396;2024-01-15T00:08:29;94612.44;;;-3.31;63.50
8059;BME280;75058;42.668;23.396;2024-01-15T00:10:57;94603.69;;;-2.94;66.33
8059;BME280;75058;42.668;23.396;2024-01-15T00:13:27;94606.63;;;-3.15;64.90
8059;BME280;75058;42.668;23.396;2024-01-15T00:15:54;94608.06;;;-2.87;65.83
8059;BME280;75058;42.668;23.396;2024-01-15T00:18:24;94599.81;;;-2.98;65.08
8059;BME280;75058;42.668;23.396;2024-01-15T00:20:53;94603.03;;;-2.96;64.64
8059;BME280;75058;42.668;23.396;2024-01-15T00:23:21;94610.00;;;-3.15;64.56
8059;BME280;75058;42.668;23.396;2024-01-15T00:25:50;94612.25;;;-3.37;64.23
8059;BME280;75058;42.668;23.396;2024-01-15T00:28:18;94620.88;;;-3.38;63.76
8059;BME280;75058;42.668;23.396;2024-01-15T00:30:48;94615.19;;;-3.50;65.93
8059;BME280;75058;42.668;23.396;2024-01-15T00:33:16;94606.59;;;-3.49;63.54
8059;BME280;75058;42.668;23.396;2024-01-15T00:35:44;94610.66;;;-3.38;65.66
8059;BME280;75058;42.668;23.396;2024-01-15T00:38:14;94613.00;;;-3.45;64.15
8059;BME280;75058;42.668;23.396;2024-01-15T00:40:42;94616.91;;;-3.33;66.55
8059;BME280;75058;42.668;23.396;2024-01-15T00:43:10;94615.47;;;-3.78;66.20
8059;BME280;75058;42.668;23.396;2024-01-15T00:45:38;94613.13;;;-3.72;65.61
8059;BME280;75058;42.668;23.396;2024-01-15T00:48:08;94622.66;;;-3.56;65.69
8059;BME280;75058;42.668;23.396;2024-01-15T00:50:36;94613.50;;;-3.41;65.28
8059;BME280;75058;42.668;23.396;2024-01-15T00:53:07;94612.19;;;-3.20;63.49
8059;BME280;75058;42.668;23.396;2024-01-15T00:55:35;94597.69;;;-3.62;64.98
8059;BME280;75058;42.668;23.396;2024-01-15T00:58:04;94613.44;;;-3.75;64.23
8059;BME280;75058;42.668;23.396;2024-01-15T01:00:32;94606.56;;;-3.74;64.70
8059;BME280;75058;42.668;23.396;2024-01-15T01:03:00;94614.09;;;-3.47;65.52
8059;BME280;75058;42.668;23.396;2024-01-15T01:05:29;94618.81;;;-3.60;67.16
8059;BME280;75058;42.668;23.396;2024-01-15T01:07:57;94609.19;;;-3.41;64.82
8059;BME280;75058;42.668;23.396;2024-01-15T01:10:27;94602.91;;;-3.21;67.37
8059;BME280;75058;42.668;23.396;2024-01-15T01:12:55;94607.88;;;-2.85;64.78
8059;BME280;75058;42.668;23.396;2024-01-15T01:15:24;94606.84;;;-2.59;65.95
8059;BME280;75058;42.668;23.396;2024-01-15T01:17:52;94589.66;;;-3.16;64.05
8059;BME280;75058;42.668;23.396;2024-01-15T01:20:20;94613.69;;;-3.60;63.36
8059;BME280;75058;42.668;23.396;2024-01-15T01:22:50;94610.53;;;-4.33;65.25
8059;BME280;75058;42.668;23.396;2024-01-15T01:25:18;94614.91;;;-4.43;65.85
8059;BME280;75058;42.668;23.396;2024-01-15T01:27:47;94612.78;;;-4.30;64.89
8059;BME280;75058;42.668;23.396;2024-01-15T01:30:15;94595.28;;;-4.60;65.42
8059;BME280;75058;42.668;23.396;2024-01-15T01:32:44;94588.53;;;-4.61;66.65
8059;BME280;75058;42.668;23.396;2024-01-15T01:35:14;94552.75;;;-4.69;66.07
8059;BME280;75058;42.668;23.396;2024-01-15T01:37:42;94585.28;;;-4.01;68.43
8059;BME280;75058;42.668;23.396;2024-01-15T01:40:12;94592.19;;;-3.75;68.66
8059;BME280;75058;42.668;23.396;2024-01-15T01:42:40;94583.16;;;-3.87;65.66
8059;BME280;75058;42.668;23.396;2024-01-15T01:45:08;94586.31;;;-3.94;64.57
8059;BME280;75058;42.668;23.396;2024-01-15T01:47:37;94592.56;;;-4.06;64.93
8059;BME280;75058;42.668;23.396;2024-01-15T01:50:07;94583.03;;;-4.39;65.81
8059;BME280;75058;42.668;23.396;2024-01-15T01:52:35;94566.53;;;-4.44;65.77
8059;BME280;75058;42.668;23.396;2024-01-15T01:55:04;94589.75;;;-4.03;65.65
8059;BME280;75058;42.668;23.396;2024-01-15T01:57:36;94576.75;;;-4.09;66.00
8059;BME280;75058;42.668;23.396;2024-01-15T02:00:05;94571.81;;;-4.28;65.41
8059;BME280;75058;42.668;23.396;2024-01-15T02:02:34;94577.63;;;-4.01;63.96
8059;BME280;75058;42.668;23.396;2024-01-15T02:05:04;94560.03;;;-4.74;66.19
8059;BME280;75058;42.668;23.396;2024-01-15T02:07:34;94570.75;;;-4.98;67.09
8059;BME280;75058;42.668;23.396;2024-01-15T02:10:03;94572.69;;;-4.82;67.26
8059;BME280;75058;42.668;23.396;2024-01-15T02:12:33;94564.19;;;-4.55;66.58
8059;BME280;75058;42.668;23.396;2024-01-15T02:15:04;94544.94;;;-4.15;65.38
8059;BME280;75058;42.668;23.396;2024-01-15T02:17:32;94553.88;;;-3.42;66.25
8059;BME280;75058;42.668;23.396;2024-01-15T02:20:00;94541.50;;;-3.29;66.26
8059;BME280;75058;42.668;23.396;2024-01-15T02:22:30;94541.97;;;-3.84;65.31
8059;BME280;75058;42.668;23.396;2024-01-15T02:24:59;94532.16;;;-3.71;66.98
8059;BME280;75058;42.668;23.396;2024-01-15T02:27:28;94535.56;;;-3.63;66.02
8059;BME280;75058;42.668;23.396;2024-01-15T02:29:56;94531.13;;;-3.53;65.42
8059;BME280;75058;42.668;23.396;2024-01-15T02:32:24;94523.28;;;-4.11;65.38
8059;BME280;75058;42.668;23.396;2024-01-15T02:34:52;94501.34;;;-4.39;66.23
8059;BME280;75058;42.668;23.396;2024-01-15T02:37:21;94487.63;;;-4.38;66.47
8059;BME280;75058;42.668;23.396;2024-01-15T02:39:49;94500.69;;;-4.41;66.24
8059;BME280;75058;42.668;23.396;2024-01-15T02:42:18;94502.28;;;-4.40;66.06
8059;BME280;75058;42.668;23.396;2024-01-15T02:44:46;94507.38;;;-4.40;66.59
8059;BME280;75058;42.668;23.396;2024-01-15T02:47:16;94499.88;;;-4.41;66.29
8059;BME280;75058;42.668;23.396;2024-01-15T02:49:44;94504.31;;;-4.26;66.08
8059;BME280;75058;42.668;23.396;2024-01-15T02:52:12;94500.22;;;-3.93;66.96
8059;BME280;75058;42.668;23.396;2024-01-15T02:54:40;94443.47;;;-4.56;65.92
8059;BME280;75058;42.668;23.396;2024-01-15T02:57:09;94499.16;;;-4.08;65.46
8059;BME280;75058;42.668;23.396;2024-01-15T02:59:38;94502.38;;;-4.06;65.14
8059;BME280;75058;42.668;23.396;2024-01-15T03:02:06;94496.63;;;-3.82;64.81
8059;BME280;75058;42.668;23.396;2024-01-15T03:04:34;94487.97;;;-3.89;64.68
8059;BME280;75058;42.668;23.396;2024-01-15T03:07:02;94480.94;;;-3.62;64.59
8059;BME280;75058;42.668;23.396;2024-01-15T03:09:30;94499.47;;;-3.26;66.12
8059;BME280;75058;42.668;23.396;2024-01-15T03:12:00;94499.19;;;-3.23;64.60
8059;BME280;75058;42.668;23.396;2024-01-15T03:14:28;94487.50;;;-3.59;63.42
8059;BME280;75058;42.668;23.396;2024-01-15T03:16:57;94511.06;;;-4.60;65.26
8059;BME280;75058;42.668;23.396;2024-01-15T03:19:27;94489.88;;;-3.92;64.93
8059;BME280;75058;42.668;23.396;2024-01-15T03:21:56;94493.97;;;-4.59;64.53
8059;BME280;75058;42.668;23.396;2024-01-15T03:24:24;94489.03;;;-4.96;65.23
8059;BME280;75058;42.668;23.396;2024-01-15T03:26:54;94500.88;;;-4.17;66.54
8059;BME280;75058;42.668;23.396;2024-01-15T03:29:22;94481.28;;;-4.08;65.51
8059;BME280;75058;42.668;23.396;2024-01-15T03:31:50;94479.66;;;-3.24;67.53
8059;BME280;75058;42.668;23.396;2024-01-15T03:34:20;94477.66;;;-3.72;63.87
8059;BME280;75058;42.668;23.396;2024-01-15T03:36:48;94469.25;;;-3.64;63.46
8059;BME280;75058;42.668;23.396;2024-01-15T03:39:16;94467.22;;;-3.53;65.24
8059;BME280;75058;42.668;23.396;2024-01-15T03:41:44;94479.09;;;-3.77;63.07
8059;BME280;75058;42.668;23.396;2024-01-15T03:44:12;94464.22;;;-3.82;63.28
8059;BME280;75058;42.668;23.396;2024-01-15T03:46:41;94471.03;;;-3.91;64.05
8059;BME280;75058;42.668;23.396;2024-01-15T03:49:08;94464.91;;;-2.80;64.35
8059;BME280;75058;42.668;23.396;2024-01-15T03:51:38;94469.94;;;-3.13;65.16
8059;BME280;75058;42.668;23.396;2024-01-15T03:54:06;94472.66;;;-3.14;64.70
8059;BME280;75058;42.668;23.396;2024-01-15T03:56:35;94465.63;;;-3.54;62.70
8059;BME280;75058;42.668;23.396;2024-01-15T03:59:04;94464.72;;;-3.45;63.70
8059;BME280;75058;42.668;23.396;2024-01-15T04:01:32;94468.25;;;-3.38;63.35
8059;BME280;75058;42.668;23.396;2024-01-15T04:04:00;94455.22;;;-3.60;64.15
8059;BME280;75058;42.668;23.396;2024-01-15T04:06:31;94476.81;;;-3.21;64.98
8059;BME280;75058;42.668;23.396;2024-01-15T04:09:01;94465.22;;;-3.33;63.19
8059;BME280;75058;42.668;23.396;2024-01-15T04:11:29;94448.97;;;-3.24;64.05
8059;BME280;75058;42.668;23.396;2024-01-15T04:13:57;94446.91;;;-3.62;65.09
8059;BME280;75058;42.668;23.396;2024-01-15T04:16:25;94442.78;;;-3.05;66.22
8059;BME280;75058;42.668;23.396;2024-01-15T04:18:53;94457.53;;;-3.41;62.59
8059;BME280;75058;42.668;23.396;2024-01-15T04:21:22;94441.34;;;-3.92;63.97
8059;BME280;75058;42.668;23.396;2024-01-15T04:23:50;94460.06;;;-3.49;64.83
8059;BME280;75058;42.668;23.396;2024-01-15T04:26:19;94462.91;;;-3.52;65.46
8059;BME280;75058;42.668;23.396;2024-01-15T04:28:47;94461.47;;;-3.88;64.27
8059;BME280;75058;42.668;23.396;2024-01-15T04:31:23;94464.00;;;-4.14;64.11
8059;BME280;75058;42.668;23.396;2024-01-15T04:33:51;94465.25;;;-4.97;64.86
8059;BME280;75058;42.668;23.396;2024-01-15T04:36:20;94463.28;;;-5.03;65.88
8059;BME280;75058;42.668;23.396;2024-01-15T04:38:49;94445.69;;;-5.23;65.72
8059;BME280;75058;42.668;23.396;2024-01-15T04:41:17;94461.19;;;-5.07;66.79
8059;BME280;75058;42.668;23.396;2024-01-15T04:43:46;94461.28;;;-4.38;67.08
8059;BME280;75058;42.668;23.396;2024-01-15T04:46:14;94444.59;;;-4.50;65.91
8059;BME280;75058;42.668;23.396;2024-01-15T04:48:42;94449.13;;;-3.93;65.45
8059;BME280;75058;42.668;23.396;2024-01-15T04:51:11;94442.69;;;-4.05;64.91
8059;BME280;75058;42.668;23.396;2024-01-15T04:53:39;94441.00;;;-4.22;64.96
8059;BME280;75058;42.668;23.396;2024-01-15T04:56:07;94434.63;;;-4.18;65.89
8059;BME280;75058;42.668;23.396;2024-01-15T04:58:35;94430.38;;;-3.76;66.70
8059;BME280;75058;42.668;23.396;2024-01-15T05:01:05;94449.03;;;-3.83;65.48
8059;BME280;75058;42.668;23.396;2024-01-15T05:03:33;94432.28;;;-3.78;65.24
8059;BME280;75058;42.668;23.396;2024-01-15T05:06:01;94431.25;;;-4.19;64.52
8059;BME280;75058;42.668;23.396;2024-01-15T05:08:30;94438.81;;;-3.83;64.05
8059;BME280;75058;42.668;23.396;2024-01-15T05:10:58;94435.78;;;-3.53;63.97
8059;BME280;75058;42.668;23.396;2024-01-15T05:13:26;94436.91;;;-4.15;65.31
8059;BME280;75058;42.668;23.396;2024-01-15T05:15:55;94430.00;;;-4.15;65.61
8059;BME280;75058;42.668;23.396;2024-01-15T05:18:24;94430.22;;;-4.08;66.27
8059;BME280;75058;42.668;23.396;2024-01-15T05:20:52;94420.56;;;-3.97;65.89
8059;BME280;75058;42.668;23.396;2024-01-15T05:23:20;94414.91;;;-3.74;65.46
8059;BME280;75058;42.668;23.396;2024-01-15T05:25:50;94409.47;;;-3.71;64.71
8059;BME280;75058;42.668;23.396;2024-01-15T05:28:18;94417.59;;;-3.42;64.81
8059;BME280;75058;42.668;23.396;2024-01-15T05:30:46;94416.84;;;-3.68;64.12
8059;BME280;75058;42.668;23.396;2024-01-15T05:33:14;94421.63;;;-3.32;66.15
8059;BME280;75058;42.668;23.396;2024-01-15T05:35:45;94419.09;;;-3.16;65.54
8059;BME280;75058;42.668;23.396;2024-01-15T05:38:13;94402.63;;;-3.21;65.23
8059;BME280;75058;42.668;23.396;2024-01-15T05:40:41;94408.09;;;-3.08;65.38
8059;BME280;75058;42.668;23.396;2024-01-15T05:43:09;94411.34;;;-3.40;64.10
8059;BME280;75058;42.668;23.396;2024-01-15T05:45:38;94403.03;;;-3.42;66.21
8059;BME280;75058;42.668;23.396;2024-01-15T05:48:06;94416.28;;;-3.46;64.70
8059;BME280;75058;42.668;23.396;2024-01-15T05:50:35;94401.41;;;-3.93;64.32
8059;BME280;75058;42.668;23.396;2024-01-15T05:53:04;94400.94;;;-3.46;64.61
8059;BME280;75058;42.668;23.396;2024-01-15T05:55:32;94397.63;;;-4.40;64.46
8059;BME280;75058;42.668;23.396;2024-01-15T05:58:00;94370.41;;;-4.57;65.29
8059;BME280;75058;42.668;23.396;2024-01-15T06:00:28;94392.06;;;-4.10;64.16
8059;BME280;75058;42.668;23.396;2024-01-15T06:02:57;94389.03;;;-4.39;63.68
8059;BME280;75058;42.668;23.396;2024-01-15T06:05:24;94400.91;;;-3.96;64.85
8059;BME280;75058;42.668;23.396;2024-01-15T06:07:52;94420.13;;;-4.18;64.24
8059;BME280;75058;42.668;23.396;2024-01-15T06:10:23;94414.47;;;-4.21;64.02
8059;BME280;75058;42.668;23.396;2024-01-15T06:12:51;94424.31;;;-4.09;63.61
8059;BME280;75058;42.668;23.396;2024-01-15T06:15:19;94411.78;;;-3.60;64.66
8059;BME280;75058;42.668;23.396;2024-01-15T06:17:48;94422.38;;;-3.39;66.31
8059;BME280;75058;42.668;23.396;2024-01-15T06:20:16;94397.16;;;-3.26;65.90
8059;BME280;75058;42.668;23.396;2024-01-15T06:22:45;94397.28;;;-3.36;65.21
8059;BME280;75058;42.668;23.396;2024-01-15T06:25:13;94402.72;;;-3.80;63.47
8059;BME280;75058;42.668;23.396;2024-01-15T06:27:43;94397.28;;;-3.36;63.15
8059;BME280;75058;42.668;23.396;2024-01-15T06:30:12;94400.22;;;-3.72;63.69
8059;BME280;75058;42.668;23.396;2024-01-15T06:32:41;94390.50;;;-2.95;61.74
8059;BME280;75058;42.668;23.396;2024-01-15T06:35:09;94387.97;;;-3.53;63.48
8059;BME280;75058;42.668;23.396;2024-01-15T06:37:38;94407.13;;;-3.07;62.98
8059;BME280;75058;42.668;23.396;2024-01-15T06:40:07;94414.19;;;-2.85;63.06
8059;BME280;75058;42.668;23.396;2024-01-15T06:42:36;94406.03;;;-2.96;60.74
8059;BME280;75058;42.668;23.396;2024-01-15T06:45:06;94399.66;;;-2.44;62.28
8059;BME280;75058;42.668;23.396;2024-01-15T06:47:35;94398.31;;;-2.08;62.53
8059;BME280;75058;42.668;23.396;2024-01-15T06:50:03;94411.66;;;-2.53;61.45
8059;BME280;75058;42.668;23.396;2024-01-15T06:52:33;94412.91;;;-2.41;61.67
8059;BME280;75058;42.668;23.396;2024-01-15T06:55:01;94411.47;;;-2.27;62.68
8059;BME280;75058;42.668;23.396;2024-01-15T06:57:30;94412.59;;;-2.94;62.11
8059;BME280;75058;42.668;23.396;2024-01-15T06:59:58;94414.34;;;-2.54;61.79
8059;BME280;75058;42.668;23.396;2024-01-15T07:02:27;94411.22;;;-1.85;64.96
8059;BME280;75058;42.668;23.396;2024-01-15T07:04:55;94405.72;;;-1.27;63.35
8059;BME280;75058;42.668;23.396;2024-01-15T07:07:23;94408.03;;;-1.10;62.15
8059;BME280;75058;42.668;23.396;2024-01-15T07:09:55;94411.78;;;-1.59;59.17
8059;BME280;75058;42.668;23.396;2024-01-15T07:12:23;94426.22;;;-1.66;59.67
8059;BME280;75058;42.668;23.396;2024-01-15T07:14:51;94394.81;;;-0.99;63.61
8059;BME280;75058;42.668;23.396;2024-01-15T07:17:19;94392.34;;;-1.45;59.42
8059;BME280;75058;42.668;23.396;2024-01-15T07:19:50;94416.56;;;-1.48;59.71
8059;BME280;75058;42.668;23.396;2024-01-15T07:22:18;94411.94;;;-1.22;59.31
8059;BME280;75058;42.668;23.396;2024-01-15T07:24:46;94424.66;;;-1.28;58.19
8059;BME280;75058;42.668;23.396;2024-01-15T07:27:14;94420.06;;;-1.10;58.66
8059;BME280;75058;42.668;23.396;2024-01-15T07:29:42;94418.31;;;-1.10;60.09
8059;BME280;75058;42.668;23.396;2024-01-15T07:32:10;94398.91;;;-0.90;60.77
8059;BME280;75058;42.668;23.396;2024-01-15T07:34:38;94391.31;;;-1.36;59.03
8059;BME280;75058;42.668;23.396;2024-01-15T07:37:08;94393.47;;;-2.03;61.00
8059;BME280;75058;42.668;23.396;2024-01-15T07:39:36;94397.97;;;-1.50;61.00
8059;BME280;75058;42.668;23.396;2024-01-15T07:42:05;94396.31;;;-1.74;58.53
8059;BME280;75058;42.668;23.396;2024-01-15T07:44:34;94404.94;;;-2.38;61.95
8059;BME280;75058;42.668;23.396;2024-01-15T07:47:02;94409.22;;;-1.59;61.30
8059;BME280;75058;42.668;23.396;2024-01-15T07:49:30;94405.22;;;-1.23;60.17
8059;BME280;75058;42.668;23.396;2024-01-15T07:51:58;94418.16;;;-2.18;61.54
8059;BME280;75058;42.668;23.396;2024-01-15T07:54:29;94421.19;;;-1.43;61.46
8059;BME280;75058;42.668;23.396;2024-01-15T07:56:58;94427.00;;;-0.88;59.75
8059;BME280;75058;42.668;23.396;2024-01-15T07:59:27;94380.22;;;-1.29;58.58
8059;BME280;75058;42.668;23.396;2024-01-15T08:01:55;94415.66;;;-1.63;59.42
8059;BME280;75058;42.668;23.396;2024-01-15T08:04:23;94404.69;;;-1.49;59.22
8059;BME280;75058;42.668;23.396;2024-01-15T08:06:52;94395.81;;;-1.69;60.10
8059;BME280;75058;42.668;23.396;2024-01-15T08:09:20;94378.78;;;-2.09;60.40
8059;BME280;75058;42.668;23.396;2024-01-15T08:11:50;94373.28;;;-1.98;60.42
8059;BME280;75058;42.668;23.396;2024-01-15T08:14:18;94390.44;;;-1.21;60.36
8059;BME280;75058;42.668;23.396;2024-01-15T08:16:46;94379.59;;;-0.77;59.43
8059;BME280;75058;42.668;23.396;2024-01-15T08:19:14;94391.66;;;-1.09;59.44
8059;BME280;75058;42.668;23.396;2024-01-15T08:21:43;94381.44;;;-0.12;59.44
8059;BME280;75058;42.668;23.396;2024-01-15T08:24:11;94372.22;;;-0.06;59.19
8059;BME280;75058;42.668;23.396;2024-01-15T08:26:40;94399.88;;;0.07;57.62
8059;BME280;75058;42.668;23.396;2024-01-15T08:29:10;94400.50;;;0.09;58.64
8059;BME280;75058;42.668;23.396;2024-01-15T08:31:38;94411.28;;;-0.25;57.28
8059;BME280;75058;42.668;23.396;2024-01-15T08:34:06;94394.69;;;0.29;57.18
8059;BME280;75058;42.668;23.396;2024-01-15T08:36:35;94377.28;;;0.17;56.07
8059;BME280;75058;42.668;23.396;2024-01-15T08:39:04;94375.56;;;-0.20;57.54
8059;BME280;75058;42.668;23.396;2024-01-15T08:41:33;94372.13;;;-0.64;58.76
8059;BME280;75058;42.668;23.396;2024-01-15T08:44:02;94363.81;;;-0.74;60.17
8059;BME280;75058;42.668;23.396;2024-01-15T08:46:31;94348.16;;;0.45;59.14
8059;BME280;75058;42.668;23.396;2024-01-15T08:48:59;94358.91;;;0.34;57.33
8059;BME280;75058;42.668;23.396;2024-01-15T08:51:28;94367.63;;;0.19;59.35
8059;BME280;75058;42.668;23.396;2024-01-15T08:53:56;94349.97;;;-0.28;58.52
8059;BME280;75058;42.668;23.396;2024-01-15T08:56:24;94349.53;;;0.12;57.78
8059;BME280;75058;42.668;23.396;2024-01-15T08:58:54;94356.69;;;-0.13;57.72
8059;BME280;75058;42.668;23.396;2024-01-15T09:01:22;94359.09;;;-0.11;58.46
8059;BME280;75058;42.668;23.396;2024-01-15T09:03:52;94358.44;;;-0.28;59.22
8059;BME280;75058;42.668;23.396;2024-01-15T09:06:20;94325.94;;;-0.06;58.59
8059;BME280;75058;42.668;23.396;2024-01-15T09:08:48;94334.34;;;0.17;57.25
8059;BME280;75058;42.668;23.396;2024-01-15T09:11:17;94320.22;;;0.57;59.28
8059;BME280;75058;42.668;23.396;2024-01-15T09:13:45;94338.88;;;0.80;55.74
8059;BME280;75058;42.668;23.396;2024-01-15T09:16:13;94304.66;;;1.49;55.90
8059;BME280;75058;42.668;23.396;2024-01-15T09:18:42;94306.34;;;1.15;53.38
8059;BME280;75058;42.668;23.396;2024-01-15T09:21:11;94285.63;;;1.50;53.81
8059;BME280;75058;42.668;23.396;2024-01-15T09:23:40;94270.09;;;2.06;52.11
8059;BME280;75058;42.668;23.396;2024-01-15T09:26:08;94281.31;;;1.30;52.63
8059;BME280;75058;42.668;23.396;2024-01-15T09:28:36;94270.94;;;1.79;52.44
8059;BME280;75058;42.668;23.396;2024-01-15T09:31:04;94282.78;;;1.39;52.98
8059;BME280;75058;42.668;23.396;2024-01-15T09:33:32;94275.94;;;0.83;53.40
8059;BME280;75058;42.668;23.396;2024-01-15T09:36:01;94259.19;;;0.51;54.99
8059;BME280;75058;42.668;23.396;2024-01-15T09:38:31;94271.16;;;0.44;54.12
8059;BME280;75058;42.668;23.396;2024-01-15T09:41:00;94269.00;;;0.83;53.09
8059;BME280;75058;42.668;23.396;2024-01-15T09:43:28;94253.97;;;0.65;54.13
8059;BME280;75058;42.668;23.396;2024-01-15T09:45:57;94261.56;;;0.73;53.73
8059;BME280;75058;42.668;23.396;2024-01-15T09:48:25;94250.16;;;0.40;54.53
8059;BME280;75058;42.668;23.396;2024-01-15T09:50:53;94253.91;;;0.59;54.40
8059;BME280;75058;42.668;23.396;2024-01-15T09:53:22;94248.44;;;1.11;54.27
8059;BME280;75058;42.668;23.396;2024-01-15T09:55:53;94238.41;;;0.95;53.55
8059;BME280;75058;42.668;23.396;2024-01-15T09:58:21;94230.75;;;0.80;54.14
8059;BME280;75058;42.668;23.396;2024-01-15T10:00:50;94201.19;;;0.97;54.92
8059;BME280;75058;42.668;23.396;2024-01-15T10:03:19;94222.53;;;0.13;55.46
8059;BME280;75058;42.668;23.396;2024-01-15T10:05:49;94191.53;;;0.15;56.49
8059;BME280;75058;42.668;23.396;2024-01-15T10:08:18;94206.19;;;-0.01;56.57
8059;BME280;75058;42.668;23.396;2024-01-15T10:10:47;94226.34;;;0.17;55.50
8059;BME280;75058;42.668;23.396;2024-01-15T10:13:16;94213.53;;;0.59;57.08
8059;BME280;75058;42.668;23.396;2024-01-15T10:15:45;94215.91;;;0.19;55.32
8059;BME280;75058;42.668;23.396;2024-01-15T10:18:15;94200.06;;;0.78;55.08
8059;BME280;75058;42.668;23.396;2024-01-15T10:20:44;94194.84;;;0.51;55.23
8059;BME280;75058;42.668;23.396;2024-01-15T10:23:14;94190.16;;;0.82;54.54
8059;BME280;75058;42.668;23.396;2024-01-15T10:25:42;94154.09;;;1.03;54.74
8059;BME280;75058;42.668;23.396;2024-01-15T10:28:10;94181.91;;;1.48;53.56
8059;BME280;75058;42.668;23.396;2024-01-15T10:30:39;94162.66;;;1.85;52.58
8059;BME280;75058;42.668;23.396;2024-01-15T10:33:08;94174.81;;;1.23;53.41
8059;BME280;75058;42.668;23.396;2024-01-15T10:35:36;94157.75;;;1.15;52.99
8059;BME280;75058;42.668;23.396;2024-01-15T10:38:05;94160.78;;;1.60;55.44
8059;BME280;75058;42.668;23.396;2024-01-15T10:40:34;94141.03;;;1.05;53.81
8059;BME280;75058;42.668;23.396;2024-01-15T10:43:02;94152.81;;;0.65;54.54
8059;BME280;75058;42.668;23.396;2024-01-15T10:45:31;94147.94;;;0.49;55.46
8059;BME280;75058;42.668;23.396;2024-01-15T10:48:01;94158.69;;;0.59;55.99
8059;BME280;75058;42.668;23.396;2024-01-15T10:50:31;94165.69;;;1.20;55.21
8059;BME280;75058;42.668;23.396;2024-01-15T10:53:02;94131.25;;;0.94;54.88
8059;BME280;75058;42.668;23.396;2024-01-15T10:55:31;94146.22;;;0.84;55.83
8059;BME280;75058;42.668;23.396;2024-01-15T10:58:00;94140.31;;;1.17;55.66
8059;BME280;75058;42.668;23.396;2024-01-15T11:00:28;94139.06;;;1.07;55.79
8059;BME280;75058;42.668;23.396;2024-01-15T11:02:57;94135.34;;;1.56;55.94
8059;BME280;75058;42.668;23.396;2024-01-15T11:05:27;94112.56;;;1.13;54.66
8059;BME280;75058;42.668;23.396;2024-01-15T11:07:55;94123.06;;;1.58;55.81
8059;BME280;75058;42.668;23.396;2024-01-15T11:10:43;94120.72;;;2.24;53.95
8059;BME280;75058;42.668;23.396;2024-01-15T11:13:14;94112.22;;;2.43;53.49
8059;BME280;75058;42.668;23.396;2024-01-15T11:15:56;94118.50;;;2.14;53.14
8059;BME280;75058;42.668;23.396;2024-01-15T11:18:26;94120.75;;;2.44;53.00
8059;BME280;75058;42.668;23.396;2024-01-15T11:21:25;94096.31;;;2.53;52.15
8059;BME280;75058;42.668;23.396;2024-01-15T11:23:55;94014.47;;;1.14;54.02
8059;BME280;75058;42.668;23.396;2024-01-15T11:26:34;94086.63;;;1.68;53.40
8059;BME280;75058;42.668;23.396;2024-01-15T11:29:04;94085.69;;;1.89;53.88
8059;BME280;75058;42.668;23.396;2024-01-15T11:31:59;94087.16;;;2.57;52.97
8059;BME280;75058;42.668;23.396;2024-01-15T11:37:56;94093.69;;;3.11;51.85
8059;BME280;75058;42.668;23.396;2024-01-15T11:40:39;94092.97;;;3.55;52.03
8059;BME280;75058;42.668;23.396;2024-01-15T11:43:09;94080.13;;;3.36;50.87
8059;BME280;75058;42.668;23.396;2024-01-15T11:45:40;94083.59;;;3.03;51.00
8059;BME280;75058;42.668;23.396;2024-01-15T11:48:10;94071.75;;;3.34;50.53
8059;BME280;75058;42.668;23.396;2024-01-15T11:50:41;94066.78;;;3.39;50.96
8059;BME280;75058;42.668;23.396;2024-01-15T11:53:23;94080.31;;;3.34;50.16
8059;BME280;75058;42.668;23.396;2024-01-15T11:55:57;94072.75;;;3.39;50.76
8059;BME280;75058;42.668;23.396;2024-01-15T11:58:26;94066.91;;;3.63;49.32
8059;BME280;75058;42.668;23.396;2024-01-15T12:00:54;94070.94;;;3.90;50.40
8059;BME280;75058;42.668;23.396;2024-01-15T12:03:23;94053.28;;;3.74;49.96
8059;BME280;75058;42.668;23.396;2024-01-15T12:05:52;94057.81;;;3.48;50.15
8059;BME280;75058;42.668;23.396;2024-01-15T12:08:23;94058.19;;;2.68;50.77
8059;BME280;75058;42.668;23.396;2024-01-15T12:10:51;94020.34;;;3.06;51.80
8059;BME280;75058;42.668;23.396;2024-01-15T12:13:20;94048.66;;;3.45;50.50
8059;BME280;75058;42.668;23.396;2024-01-15T12:15:49;94038.44;;;3.06;51.65
8059;BME280;75058;42.668;23.396;2024-01-15T12:18:18;94037.38;;;3.33;50.68
8059;BME280;75058;42.668;23.396;2024-01-15T12:20:47;94031.44;;;3.26;50.70
8059;BME280;75058;42.668;23.396;2024-01-15T12:23:16;94042.84;;;2.99;50.75
8059;BME280;75058;42.668;23.396;2024-01-15T12:25:46;94027.59;;;2.84;52.05
8059;BME280;75058;42.668;23.396;2024-01-15T12:28:15;94025.00;;;2.78;52.39
8059;BME280;75058;42.668;23.396;2024-01-15T12:30:46;94025.63;;;2.67;51.77
8059;BME280;75058;42.668;23.396;2024-01-15T12:33:17;94023.63;;;2.75;52.19
8059;BME280;75058;42.668;23.396;2024-01-15T12:35:47;94011.53;;;2.69;51.10
8059;BME280;75058;42.668;23.396;2024-01-15T12:38:15;94012.28;;;2.70;51.67
8059;BME280;75058;42.668;23.396;2024-01-15T12:40:49;94023.16;;;2.98;52.18
8059;BME280;75058;42.668;23.396;2024-01-15T12:43:17;94024.72;;;3.19;51.38
8059;BME280;75058;42.668;23.396;2024-01-15T12:45:46;94032.50;;;3.56;50.79
8059;BME280;75058;42.668;23.396;2024-01-15T12:48:14;94023.72;;;3.64;50.68
8059;BME280;75058;42.668;23.396;2024-01-15T12:50:45;94009.00;;;3.64;50.79
8059;BME280;75058;42.668;23.396;2024-01-15T12:53:14;94003.59;;;3.66;51.73
8059;BME280;75058;42.668;23.396;2024-01-15T12:55:42;93988.03;;;3.72;50.63
8059;BME280;75058;42.668;23.396;2024-01-15T12:58:12;93996.47;;;3.17;51.47
8059;BME280;75058;42.668;23.396;2024-01-15T13:00:41;93998.94;;;3.43;51.31
8059;BME280;75058;42.668;23.396;2024-01-15T13:03:10;93989.22;;;3.76;51.05
8059;BME280;75058;42.668;23.396;2024-01-15T13:05:38;93991.00;;;3.82;50.15
8059;BME280;75058;42.668;23.396;2024-01-15T13:08:07;93986.88;;;3.68;50.31
8059;BME280;75058;42.668;23.396;2024-01-15T13:10:36;93996.91;;;3.58;50.57
8059;BME280;75058;42.668;23.396;2024-01-15T13:13:05;93988.72;;;3.92;49.83
8059;BME280;75058;42.668;23.396;2024-01-15T13:15:34;93966.91;;;4.07;51.60
8059;BME280;75058;42.668;23.396;2024-01-15T13:18:03;93978.72;;;3.71;50.05